Time;durP1;ratioP1;P1;durP2;ratioP2;P2;SDS_P1;SDS_P2;PMS_P1;PMS_P2;Temp;Humidity;BMP_temperature;BMP_pressure;BME280_temperature;BME280_humidity;BME280_pressure;Samples;Min_cycle;Max_cycle;Signal;HPM_P1;HPM_P2
2022/12/04 00:00:48;;;;;;;10.10;6.13;;;;;;;-0.79;45.75;95307.34;5041708;28;20102;-65
2022/12/04 00:03:14;;;;;;;10.57;6.55;;;;;;;-1.18;46.87;95300.56;5040685;28;20109;-67
2022/12/04 00:05:39;;;;;;;11.07;6.00;;;;;;;-1.27;46.35;95296.81;5041769;28;20120;-66
2022/12/04 00:08:04;;;;;;;12.38;6.90;;;;;;;-1.40;46.57;95296.03;5040959;28;20085;-66
2022/12/04 00:10:30;;;;;;;11.70;7.03;;;;;;;-1.14;46.86;95301.16;5038544;28;20097;-67
2022/12/04 00:12:55;;;;;;;11.30;6.20;;;;;;;-1.14;46.65;95296.78;5040220;28;20150;-66
2022/12/04 00:15:21;;;;;;;12.40;7.40;;;;;;;-1.19;46.24;95298.88;5041231;28;20108;-67
2022/12/04 00:17:47;;;;;;;12.32;6.93;;;;;;;-1.36;46.73;95289.66;5040757;28;20107;-66
2022/12/04 00:20:12;;;;;;;11.23;6.65;;;;;;;-1.30;47.31;95293.59;5039857;28;20562;-65
2022/12/04 00:22:38;;;;;;;12.90;7.40;;;;;;;-1.56;47.79;95284.09;5039114;28;20093;-68
2022/12/04 00:25:03;;;;;;;12.65;6.93;;;;;;;-1.66;47.65;95286.53;5041486;28;20089;-66
2022/12/04 00:27:29;;;;;;;12.20;7.20;;;;;;;-1.52;47.39;95287.31;5041516;28;20073;-67
2022/12/04 00:29:54;;;;;;;11.50;6.45;;;;;;;-1.42;46.92;95287.50;5039596;28;20116;-66
2022/12/04 00:32:20;;;;;;;11.82;7.28;;;;;;;-1.19;46.52;95285.00;5038966;28;20081;-67
2022/12/04 00:34:45;;;;;;;12.63;7.38;;;;;;;-1.18;46.31;95278.81;5038957;28;20155;-67
2022/12/04 00:37:11;;;;;;;10.18;6.50;;;;;;;-1.41;47.18;95284.78;5040397;28;20453;-65
2022/12/04 00:39:37;;;;;;;10.32;6.47;;;;;;;-1.36;47.21;95287.03;5040765;28;20497;-67
2022/12/04 00:42:02;;;;;;;11.30;6.75;;;;;;;-1.26;46.69;95290.66;5041230;28;20090;-65
2022/12/04 00:44:28;;;;;;;12.95;7.47;;;;;;;-1.12;46.61;95294.03;5039185;28;20144;-68
2022/12/04 00:46:53;;;;;;;12.23;6.72;;;;;;;-1.12;46.11;95296.66;5039612;28;20154;-67
2022/12/04 00:49:18;;;;;;;14.20;7.65;;;;;;;-1.28;48.02;95289.94;5037792;28;20093;-66
2022/12/04 00:51:44;;;;;;;11.63;7.45;;;;;;;-1.34;47.00;95285.16;5039825;28;20259;-67
2022/12/04 00:54:09;;;;;;;10.60;6.68;;;;;;;-1.38;46.93;95289.78;5040957;28;20102;-65
2022/12/04 00:56:35;;;;;;;13.13;7.65;;;;;;;-1.17;46.60;95293.53;5040939;28;20379;-68
2022/12/04 00:59:00;;;;;;;13.43;7.18;;;;;;;-1.02;46.20;95296.81;5040928;28;20112;-66
2022/12/04 01:01:26;;;;;;;12.15;7.28;;;;;;;-0.95;46.70;95291.03;5040838;28;20105;-67
2022/12/04 01:03:52;;;;;;;12.68;7.30;;;;;;;-1.01;46.89;95288.88;5041073;28;20619;-66
2022/12/04 01:06:22;;;;;;;12.48;6.88;;;;;;;-0.77;45.96;95277.56;5039809;28;20125;-68
2022/12/04 01:08:47;;;;;;;;;;;;;;;-0.77;46.17;95282.78;5040562;28;20160;-66
2022/12/04 01:11:13;;;;;;;10.70;6.50;;;;;;;-0.63;45.04;95286.13;5039854;28;20517;-67
2022/12/04 01:13:38;;;;;;;10.35;6.55;;;;;;;-0.50;45.30;95288.66;5039792;28;20127;-66
2022/12/04 01:16:04;;;;;;;15.18;8.50;;;;;;;-0.67;45.87;95298.59;5041109;28;20078;-68
2022/12/04 01:18:29;;;;;;;11.43;6.72;;;;;;;-0.82;45.99;95292.72;5037440;28;20588;-66
2022/12/04 01:20:54;;;;;;;12.27;7.38;;;;;;;-0.81;45.48;95291.81;5039731;28;20538;-67
2022/12/04 01:23:20;;;;;;;14.52;7.68;;;;;;;-0.69;45.96;95300.50;5039324;28;20205;-67
2022/12/04 01:25:50;;;;;;;11.57;6.45;;;;;;;-0.64;44.50;95287.06;5040061;28;20128;-65
2022/12/04 01:28:15;;;;;;;16.35;8.07;;;;;;;-1.24;45.74;95291.38;5040904;28;20101;-66
2022/12/04 01:30:41;;;;;;;11.52;6.45;;;;;;;-1.27;46.26;95291.59;5040710;28;20230;-67
2022/12/04 01:33:06;;;;;;;11.07;6.50;;;;;;;-1.17;46.57;95285.69;5040475;28;20082;-66
2022/12/04 01:35:31;;;;;;;14.13;8.00;;;;;;;-1.55;46.70;95277.09;5040262;28;20125;-67
2022/12/04 01:37:57;;;;;;;11.40;6.95;;;;;;;-1.47;47.18;95285.22;5040686;28;20105;-67
2022/12/04 01:40:22;;;;;;;12.38;6.63;;;;;;;-1.11;45.93;95277.41;5040947;28;20463;-65
2022/12/04 01:42:48;;;;;;;12.10;6.60;;;;;;;-1.33;46.66;95278.97;5040319;28;20117;-68
2022/12/04 01:45:31;;;;;;;12.32;7.50;;;;;;;-1.37;47.14;95267.09;5040147;28;20077;-67
2022/12/04 01:48:35;;;;;;;11.55;6.35;;;;;;;-0.93;45.86;95261.31;5040537;28;20073;-67
2022/12/04 01:51:09;;;;;;;12.88;7.22;;;;;;;-1.68;47.63;95274.53;4948611;28;20198;-67
2022/12/04 01:53:37;;;;;;;12.65;6.70;;;;;;;-1.37;46.84;95273.16;5023214;28;20099;-67
2022/12/04 01:56:02;;;;;;;11.65;6.95;;;;;;;-1.33;47.22;95268.53;5022095;28;20131;-65
2022/12/04 01:58:29;;;;;;;13.32;7.18;;;;;;;-1.40;47.32;95264.69;5038743;28;20521;-67
2022/12/04 02:00:58;;;;;;;11.05;6.30;;;;;;;-1.36;46.48;95259.16;5040648;28;20570;-67
2022/12/04 02:03:23;;;;;;;17.90;9.73;;;;;;;-1.36;47.95;95253.06;5022568;28;20196;-67
2022/12/04 02:05:49;;;;;;;11.30;6.28;;;;;;;-1.32;47.14;95253.69;5039738;28;20524;-67
2022/12/04 02:08:14;;;;;;;10.98;6.25;;;;;;;-1.03;47.00;95250.69;5040641;28;20661;-67
2022/12/04 02:11:01;;;;;;;11.23;6.90;;;;;;;-0.93;45.76;95251.72;5038722;28;20097;-67
2022/12/04 02:13:40;;;;;;;13.50;7.65;;;;;;;-0.95;45.75;95250.97;5040330;28;20133;-67
2022/12/04 02:16:23;;;;;;;14.27;7.63;;;;;;;-0.96;46.30;95246.72;5022983;28;20336;-67
2022/12/04 02:19:13;;;;;;;12.07;6.50;;;;;;;-1.04;46.22;95249.88;5037478;28;20133;-68
2022/12/04 02:21:39;;;;;;;10.90;6.78;;;;;;;-0.91;45.60;95249.00;5037020;28;20118;-68
2022/12/04 02:24:27;;;;;;;12.68;6.95;;;;;;;-1.01;45.71;95260.13;5038000;28;20077;-67
2022/12/04 02:27:00;;;;;;;11.77;6.68;;;;;;;-1.25;46.27;95263.56;5038377;28;20444;-67
2022/12/04 02:29:34;;;;;;;10.50;6.20;;;;;;;-0.92;46.06;95268.25;5037724;28;20731;-68
2022/12/04 02:32:11;;;;;;;11.75;6.80;;;;;;;-0.72;45.68;95253.66;5036725;28;20085;-68
2022/12/04 02:34:52;;;;;;;10.60;6.75;;;;;;;-0.90;45.59;95253.25;5035868;28;20529;-68
2022/12/04 02:37:21;;;;;;;11.45;6.72;;;;;;;-0.97;45.28;95253.75;5023290;28;21031;-68
2022/12/04 02:39:47;;;;;;;;;;;;;;;-1.26;45.82;95261.91;5042505;28;20154;-67
2022/12/04 02:42:15;;;;;;;9.50;6.17;;;;;;;-1.00;45.76;95258.31;5042377;28;20110;-67
2022/12/04 02:44:43;;;;;;;10.90;6.70;;;;;;;-0.75;45.57;95262.56;5025342;28;20080;-67
2022/12/04 02:47:11;;;;;;;12.70;7.30;;;;;;;-0.82;45.89;95266.59;5041442;28;20742;-67
2022/12/04 02:49:40;;;;;;;12.18;6.95;;;;;;;-0.75;45.84;95265.19;5039342;28;20543;-67
2022/12/04 02:52:06;;;;;;;12.82;6.68;;;;;;;-0.53;45.26;95268.78;5041253;28;20505;-67
2022/12/04 02:54:38;;;;;;;13.15;7.93;;;;;;;-0.72;45.62;95262.34;5024034;28;20153;-67
2022/12/04 02:57:03;;;;;;;13.25;7.25;;;;;;;-0.47;45.15;95252.59;5040892;28;20073;-67
2022/12/04 02:59:37;;;;;;;13.68;8.18;;;;;;;-0.68;45.33;95269.97;5025257;28;20076;-67
2022/12/04 03:02:08;;;;;;;11.52;7.15;;;;;;;-0.57;45.29;95270.78;5041205;28;20589;-67
2022/12/04 03:04:34;;;;;;;12.80;7.75;;;;;;;-0.50;44.87;95265.94;5014966;28;20089;-67
2022/12/04 03:07:30;;;;;;;13.20;6.75;;;;;;;-0.66;45.44;95273.28;5040456;28;20117;-67
2022/12/04 03:10:00;;;;;;;13.10;7.15;;;;;;;-0.94;45.63;95270.97;5041254;28;20103;-67
2022/12/04 03:12:45;;;;;;;13.57;7.80;;;;;;;-0.72;45.35;95274.56;5040437;28;20390;-67
2022/12/04 03:15:19;;;;;;;12.98;7.35;;;;;;;-1.11;46.25;95270.38;5041472;28;20101;-67
2022/12/04 03:18:24;;;;;;;12.45;6.88;;;;;;;-1.19;46.06;95271.91;5038870;28;20286;-67
2022/12/04 03:20:53;;;;;;;13.52;7.95;;;;;;;-0.86;45.28;95273.00;5027548;28;20596;-67
2022/12/04 03:23:21;;;;;;;13.50;7.38;;;;;;;-0.85;45.32;95279.88;5040634;28;20113;-67
2022/12/04 03:26:00;;;;;;;11.57;7.40;;;;;;;-0.78;45.79;95280.28;5024359;28;20171;-67
2022/12/04 03:28:32;;;;;;;12.90;7.17;;;;;;;-0.75;45.66;95282.66;5041356;28;20117;-67
2022/12/04 03:30:59;;;;;;;11.38;7.03;;;;;;;-0.87;45.82;95281.78;5038122;28;20497;-67
2022/12/04 03:33:40;;;;;;;13.57;7.75;;;;;;;-0.79;45.75;95282.03;5038835;28;20235;-67
2022/12/04 03:36:15;;;;;;;13.15;7.70;;;;;;;-0.87;45.77;95276.56;5024057;28;20197;-67
2022/12/04 03:39:01;;;;;;;13.27;7.93;;;;;;;-1.10;45.68;95274.69;5038361;28;20101;-67
2022/12/04 03:41:47;;;;;;;13.40;7.57;;;;;;;-1.19;46.31;95277.16;5039699;28;20200;-67
2022/12/04 03:44:35;;;;;;;13.80;8.05;;;;;;;-1.02;45.89;95265.44;5039851;28;20084;-67
2022/12/04 03:47:06;;;;;;;12.05;7.15;;;;;;;-1.25;46.70;95271.41;5039167;28;20109;-67
2022/12/04 03:49:39;;;;;;;13.63;7.75;;;;;;;-1.30;46.71;95270.91;5039189;28;20192;-67
2022/12/04 03:52:31;;;;;;;11.50;7.30;;;;;;;-1.10;46.01;95273.84;5040537;28;20135;-67
2022/12/04 03:55:00;;;;;;;12.15;7.43;;;;;;;-0.99;46.25;95273.88;5055064;28;20548;-67
2022/12/04 03:57:28;;;;;;;13.57;7.70;;;;;;;-0.68;45.94;95262.09;5024280;28;20097;-67
2022/12/04 04:00:15;;;;;;;12.73;7.40;;;;;;;-0.89;46.10;95260.16;5023486;28;20085;-67
2022/12/04 04:02:43;;;;;;;13.13;7.60;;;;;;;-1.03;45.96;95258.53;5040286;28;20123;-67
2022/12/04 04:05:09;;;;;;;13.30;7.47;;;;;;;-0.97;45.69;95256.34;5039417;28;20120;-68
2022/12/04 04:07:45;;;;;;;11.90;7.18;;;;;;;-0.80;45.57;95250.78;5024263;28;20531;-67
2022/12/04 04:10:13;;;;;;;13.48;7.88;;;;;;;-0.93;45.53;95256.09;5039355;28;20465;-67
2022/12/04 04:12:44;;;;;;;12.27;7.50;;;;;;;-0.86;45.75;95258.16;5039509;28;20182;-67
2022/12/04 04:26:21;;;;;;;12.38;7.20;;;;;;;-1.27;45.67;95256.78;5025839;28;20268;-67
2022/12/04 04:28:47;;;;;;;13.98;8.00;;;;;;;-1.22;46.37;95252.09;5022805;28;20073;-67
2022/12/04 04:31:34;;;;;;;13.32;7.25;;;;;;;-1.32;46.23;95249.31;5040340;28;20101;-67
2022/12/04 04:34:08;;;;;;;12.40;7.78;;;;;;;-1.24;45.77;95248.75;5040955;28;20108;-67
2022/12/04 04:36:48;;;;;;;15.02;7.50;;;;;;;-1.65;47.06;95245.59;5040893;28;20151;-67
2022/12/04 04:39:17;;;;;;;14.95;7.28;;;;;;;-1.55;46.93;95253.59;5039745;28;20163;-67
2022/12/04 04:41:49;;;;;;;11.15;7.25;;;;;;;-1.27;46.26;95252.41;5040703;28;20204;-67
2022/12/04 04:44:28;;;;;;;15.13;7.88;;;;;;;-1.52;47.74;95251.59;5022363;28;20405;-68
2022/12/04 04:46:56;;;;;;;14.18;7.82;;;;;;;-1.44;46.62;95242.34;5026060;28;20125;-68
2022/12/04 04:49:22;;;;;;;11.65;7.20;;;;;;;-1.14;46.39;95251.50;5039198;28;20073;-67
2022/12/04 04:51:48;;;;;;;12.43;7.68;;;;;;;-0.90;45.83;95253.25;5023075;28;20500;-68
2022/12/04 04:54:13;;;;;;;13.65;7.43;;;;;;;-1.32;47.21;95259.78;5022470;28;20104;-67
2022/12/04 04:56:42;;;;;;;15.00;7.45;;;;;;;-1.25;46.49;95262.75;5038200;28;20073;-67
2022/12/04 04:59:08;;;;;;;12.50;7.35;;;;;;;-1.50;46.64;95257.53;5040095;28;20500;-67
2022/12/04 05:01:33;;;;;;;13.48;7.53;;;;;;;-1.17;46.67;95255.19;5038483;28;20124;-68
2022/12/04 05:03:59;;;;;;;13.70;7.60;;;;;;;-1.02;46.16;95258.44;5040320;28;20119;-67
2022/12/04 05:06:24;;;;;;;12.18;7.32;;;;;;;-0.94;45.91;95244.84;5031683;28;20455;-67
2022/12/04 05:08:49;;;;;;;16.48;8.05;;;;;;;-0.88;46.24;95248.75;5040256;28;20093;-67
2022/12/04 05:11:15;;;;;;;12.55;7.07;;;;;;;-0.71;46.14;95250.91;5039907;28;20109;-68
2022/12/04 05:13:41;;;;;;;14.20;7.60;;;;;;;-0.79;45.96;95242.84;5038763;28;20110;-68
2022/12/04 05:16:09;;;;;;;11.57;7.30;;;;;;;-0.68;45.31;95235.97;5023073;28;20172;-67
2022/12/04 05:18:34;;;;;;;13.13;7.75;;;;;;;-0.56;45.34;95232.41;5039988;28;20128;-67
2022/12/04 05:21:06;;;;;;;10.93;6.95;;;;;;;-0.76;45.80;95241.75;5037511;28;20093;-67
2022/12/04 05:23:32;;;;;;;12.48;7.10;;;;;;;-0.59;45.21;95243.09;5039058;28;20592;-67
2022/12/04 05:26:01;;;;;;;12.93;7.50;;;;;;;-0.77;45.37;95250.56;5040671;28;20109;-67
2022/12/04 05:28:26;;;;;;;10.25;6.45;;;;;;;-1.10;45.92;95251.16;5040135;28;20097;-68
2022/12/04 05:30:56;;;;;;;12.02;6.32;;;;;;;-1.12;46.11;95252.25;5038773;28;20102;-67
2022/12/04 05:33:21;;;;;;;11.38;7.07;;;;;;;-1.00;45.56;95258.31;5038554;28;20635;-67
2022/12/04 05:36:02;;;;;;;13.05;6.65;;;;;;;-1.13;45.73;95255.78;5039589;28;20147;-67
2022/12/04 05:38:27;;;;;;;13.65;6.38;;;;;;;-1.31;46.71;95264.03;5040183;28;20549;-68
2022/12/04 05:40:53;;;;;;;10.40;6.20;;;;;;;-1.07;46.43;95260.56;5037966;28;20111;-68
2022/12/04 05:43:18;;;;;;;13.52;7.10;;;;;;;-1.13;46.39;95253.16;5039217;28;20105;-68
2022/12/04 05:45:43;;;;;;;12.93;7.53;;;;;;;-1.33;46.61;95252.84;5040663;28;20105;-68
2022/12/04 05:48:09;;;;;;;12.55;7.15;;;;;;;-1.14;46.44;95259.34;5040097;28;20093;-67
2022/12/04 05:50:34;;;;;;;11.25;6.93;;;;;;;-1.10;46.67;95252.94;5040512;28;20155;-67
2022/12/04 05:52:59;;;;;;;15.07;6.68;;;;;;;-1.26;46.69;95250.63;5039997;28;20522;-67
2022/12/04 05:55:25;;;;;;;11.35;6.82;;;;;;;-0.97;45.79;95256.34;5040296;28;20473;-67
2022/12/04 05:57:50;;;;;;;11.30;6.40;;;;;;;-1.03;46.48;95251.53;5039825;28;20136;-67
2022/12/04 06:00:16;;;;;;;10.95;6.85;;;;;;;-0.95;46.36;95249.22;5040556;28;20090;-67
2022/12/04 06:02:42;;;;;;;10.80;6.70;;;;;;;-1.15;46.15;95244.63;5039429;28;20109;-67
2022/12/04 06:05:07;;;;;;;9.35;5.70;;;;;;;-1.39;46.52;95246.31;5037428;28;20762;-67
2022/12/04 06:07:33;;;;;;;9.43;6.00;;;;;;;-1.37;47.22;95249.66;5039568;28;20083;-68
2022/12/04 06:09:58;;;;;;;12.35;6.10;;;;;;;-1.23;46.77;95246.03;5040257;28;20109;-67
2022/12/04 06:12:23;;;;;;;11.65;6.55;;;;;;;-1.35;47.35;95252.97;5042893;28;20077;-67
2022/12/04 06:14:49;;;;;;;11.90;5.55;;;;;;;-1.62;47.83;95242.78;5043773;28;20093;-68
2022/12/04 06:17:14;;;;;;;8.98;5.47;;;;;;;-1.51;47.56;95253.28;5043942;28;20532;-67
2022/12/04 06:19:40;;;;;;;10.85;6.55;;;;;;;-1.28;46.80;95242.09;5043948;28;20073;-68
2022/12/04 06:22:05;;;;;;;10.00;6.35;;;;;;;-1.27;48.08;95244.59;5039645;28;20124;-68
2022/12/04 06:24:31;;;;;;;12.98;6.32;;;;;;;-1.27;47.59;95239.34;5044564;28;20457;-68
2022/12/04 06:26:57;;;;;;;11.25;6.22;;;;;;;-1.14;46.80;95241.06;5042506;28;20211;-68
2022/12/04 06:29:22;;;;;;;12.13;6.53;;;;;;;-1.12;47.21;95236.56;5044009;28;20143;-68
2022/12/04 06:31:48;;;;;;;10.48;6.18;;;;;;;-1.30;47.86;95236.97;5042758;28;20077;-68
2022/12/04 06:34:13;;;;;;;10.02;6.10;;;;;;;-1.09;46.97;95241.53;5043880;28;20097;-68
2022/12/04 06:36:38;;;;;;;11.52;7.18;;;;;;;-1.00;46.79;95233.03;5041573;28;20117;-67
2022/12/04 06:39:04;;;;;;;12.57;6.85;;;;;;;-1.32;47.82;95233.66;5043692;28;20161;-68
2022/12/04 06:41:30;;;;;;;11.93;6.80;;;;;;;-1.12;46.69;95241.78;5039617;28;20136;-67
2022/12/04 06:43:55;;;;;;;12.27;5.93;;;;;;;-1.03;46.60;95248.94;5041806;28;20624;-68
2022/12/04 06:46:22;;;;;;;12.20;6.68;;;;;;;-1.13;46.78;95251.41;5040455;28;20101;-67
2022/12/04 06:48:48;;;;;;;12.48;6.45;;;;;;;-1.08;47.15;95251.06;5042362;28;20131;-68
2022/12/04 06:51:17;;;;;;;8.63;5.45;;;;;;;-1.37;47.10;95260.09;5041086;28;20094;-67
2022/12/04 06:53:42;;;;;;;10.27;6.25;;;;;;;-1.39;47.03;95269.81;5041683;28;20097;-67
2022/12/04 06:56:09;;;;;;;12.43;6.47;;;;;;;-1.26;47.62;95276.75;5042369;28;20096;-68
2022/12/04 06:58:35;;;;;;;10.70;6.50;;;;;;;-0.87;47.25;95268.72;5043173;28;20303;-68
2022/12/04 07:01:08;;;;;;;11.05;6.70;;;;;;;-0.76;47.04;95268.75;5040755;28;20120;-67
2022/12/04 07:03:33;;;;;;;11.82;7.05;;;;;;;-0.72;46.79;95257.09;5025480;28;20237;-67
2022/12/04 07:05:59;;;;;;;9.70;6.28;;;;;;;-0.61;47.06;95268.53;5042129;28;20109;-68
2022/12/04 07:08:24;;;;;;;11.93;6.20;;;;;;;-1.16;47.68;95271.72;5042024;28;20623;-67
2022/12/04 07:10:49;;;;;;;14.00;7.10;;;;;;;-0.87;46.65;95271.34;5041950;28;20176;-68
2022/12/04 07:13:15;;;;;;;14.00;6.88;;;;;;;-0.88;46.78;95270.50;5042195;28;20109;-68
2022/12/04 07:15:40;;;;;;;10.82;6.28;;;;;;;-1.08;46.59;95269.34;5043552;28;20077;-67
2022/12/04 07:18:06;;;;;;;10.80;6.13;;;;;;;-1.05;47.17;95269.09;5042569;28;20109;-68
2022/12/04 07:20:31;;;;;;;14.50;6.20;;;;;;;-1.02;46.91;95275.91;5037881;28;20104;-68
2022/12/04 07:22:56;;;;;;;10.93;6.20;;;;;;;-1.21;47.46;95280.69;5039760;28;20481;-68
2022/12/04 07:25:22;;;;;;;10.93;6.45;;;;;;;-1.13;46.91;95289.75;5042910;28;20113;-68
2022/12/04 07:27:47;;;;;;;15.45;6.90;;;;;;;-1.11;47.34;95285.25;5042230;28;20077;-67
2022/12/04 07:30:13;;;;;;;11.68;6.22;;;;;;;-1.15;48.09;95284.63;5042031;28;20576;-68
2022/12/04 07:32:38;;;;;;;12.25;6.53;;;;;;;-0.79;46.58;95284.66;5040467;28;20089;-67
2022/12/04 07:35:04;;;;;;;10.73;6.30;;;;;;;-0.60;46.34;95286.72;5040588;28;20121;-68
2022/12/04 07:37:30;;;;;;;12.05;7.00;;;;;;;-0.63;46.63;95289.56;5040753;28;20467;-68
2022/12/04 07:39:55;;;;;;;12.27;6.43;;;;;;;-0.51;46.59;95282.56;5042385;28;20434;-67
2022/12/04 07:42:21;;;;;;;12.30;6.85;;;;;;;-0.79;46.20;95289.03;5037774;28;20101;-68
2022/12/04 07:44:46;;;;;;;10.43;6.53;;;;;;;-0.57;45.97;95288.28;5041684;28;20094;-67
2022/12/04 07:47:12;;;;;;;12.00;6.47;;;;;;;-0.74;46.42;95285.13;5041689;28;20117;-68
2022/12/04 07:49:37;;;;;;;10.88;6.43;;;;;;;-1.04;47.35;95280.41;5042419;28;20422;-68
2022/12/04 07:52:03;;;;;;;9.70;6.20;;;;;;;-0.88;46.98;95280.13;5041844;28;20501;-67
2022/12/04 07:54:28;;;;;;;10.80;5.82;;;;;;;-1.05;47.76;95270.91;5040841;28;20101;-68
2022/12/04 07:56:53;;;;;;;12.77;6.63;;;;;;;-1.06;48.16;95272.66;5040138;28;20085;-68
2022/12/04 07:59:19;;;;;;;10.73;6.13;;;;;;;-1.00;47.72;95264.38;5041415;28;20105;-68
2022/12/04 08:01:44;;;;;;;10.90;6.53;;;;;;;-0.80;47.69;95269.94;5041935;28;20481;-68
2022/12/04 08:04:10;;;;;;;13.32;6.40;;;;;;;-0.98;47.79;95269.50;5040481;28;20108;-68
2022/12/04 08:06:36;;;;;;;9.93;6.13;;;;;;;-1.03;48.30;95267.22;5038594;28;20106;-68
2022/12/04 08:09:01;;;;;;;9.90;6.15;;;;;;;-0.59;47.55;95264.00;5039174;28;20369;-68
2022/12/04 08:11:27;;;;;;;13.55;6.68;;;;;;;-0.49;47.49;95254.53;5042069;28;20078;-68
2022/12/04 08:13:57;;;;;;;9.73;5.82;;;;;;;-0.90;48.12;95261.09;5039264;28;20123;-68
2022/12/04 08:16:22;;;;;;;11.32;6.80;;;;;;;-0.83;47.72;95259.69;5041688;28;20497;-67
2022/12/04 08:18:48;;;;;;;9.80;6.43;;;;;;;-0.66;46.88;95261.03;5040774;28;20116;-68
2022/12/04 08:21:15;;;;;;;9.93;6.00;;;;;;;-0.39;47.45;95253.81;5040903;28;20086;-68
2022/12/04 08:23:41;;;;;;;12.02;6.72;;;;;;;-0.46;47.37;95256.06;5041537;28;20082;-68
2022/12/04 08:26:06;;;;;;;14.27;6.07;;;;;;;-0.46;47.16;95264.75;5040408;28;20113;-67
2022/12/04 08:28:32;;;;;;;12.23;6.57;;;;;;;-0.58;47.29;95250.81;5042211;28;20105;-67
2022/12/04 08:31:11;;;;;;;9.60;5.25;;;;;;;-0.75;47.53;95254.72;5039121;28;20637;-68
2022/12/04 08:33:37;;;;;;;10.15;6.45;;;;;;;-0.63;47.08;95262.59;5038449;28;20640;-67
2022/12/04 08:36:05;;;;;;;11.38;6.18;;;;;;;-0.65;47.34;95260.09;5041054;28;20125;-67
2022/12/04 08:38:30;;;;;;;12.43;6.57;;;;;;;-0.24;46.66;95257.03;5040102;28;20117;-67
2022/12/04 08:41:00;;;;;;;13.38;6.38;;;;;;;-0.36;46.87;95258.81;5041740;28;20421;-67
2022/12/04 08:43:25;;;;;;;11.63;6.40;;;;;;;-0.27;46.64;95268.53;5039283;28;20192;-68
2022/12/04 08:45:58;;;;;;;10.70;6.18;;;;;;;-0.47;47.41;95268.31;5040393;28;20574;-67
2022/12/04 08:48:23;;;;;;;11.23;5.95;;;;;;;-0.58;47.18;95263.91;5041680;28;20134;-67
2022/12/04 08:50:48;;;;;;;9.65;6.07;;;;;;;-0.40;47.41;95268.69;5040362;28;20140;-67
2022/12/04 08:53:14;;;;;;;10.45;6.18;;;;;;;-0.37;47.29;95271.03;5039737;28;20092;-67
2022/12/04 08:55:39;;;;;;;10.57;5.70;;;;;;;-0.48;47.43;95271.03;5039680;28;20081;-67
2022/12/04 08:58:05;;;;;;;11.32;5.90;;;;;;;-0.44;47.63;95269.84;5041004;28;20098;-67
2022/12/04 09:00:30;;;;;;;12.23;6.40;;;;;;;-0.13;46.97;95274.50;5039329;28;20100;-67
2022/12/04 09:02:56;;;;;;;12.57;6.32;;;;;;;-0.09;46.34;95270.69;5040605;28;20098;-68
2022/12/04 09:05:21;;;;;;;11.77;6.32;;;;;;;-0.23;46.93;95277.81;5038476;28;20085;-68
2022/12/04 09:07:47;;;;;;;10.35;6.13;;;;;;;-0.44;48.64;95275.91;5041447;28;20527;-68
2022/12/04 09:10:12;;;;;;;11.50;6.60;;;;;;;0.04;47.33;95274.00;5036909;28;20097;-68
2022/12/04 09:12:38;;;;;;;11.07;6.20;;;;;;;0.03;46.62;95271.50;5041695;28;20073;-67
2022/12/04 09:15:03;;;;;;;12.63;7.30;;;;;;;0.24;46.35;95271.59;5039897;28;20109;-68
2022/12/04 09:17:29;;;;;;;11.45;6.22;;;;;;;0.46;46.37;95270.75;5041139;28;20099;-68
2022/12/04 09:19:54;;;;;;;11.43;6.75;;;;;;;0.68;45.90;95278.66;5040742;28;20076;-68
2022/12/04 09:22:19;;;;;;;13.40;7.10;;;;;;;0.45;45.88;95276.91;5039651;28;20483;-68
2022/12/04 09:24:45;;;;;;;12.20;6.90;;;;;;;0.47;45.83;95284.66;5040802;28;20088;-68
2022/12/04 09:27:10;;;;;;;11.75;6.18;;;;;;;0.44;45.66;95282.28;5038711;28;20093;-67
2022/12/04 09:29:36;;;;;;;13.38;7.20;;;;;;;0.12;46.41;95280.44;5040577;28;20097;-67
2022/12/04 09:32:01;;;;;;;12.20;6.80;;;;;;;0.00;46.74;95272.59;5038755;28;20070;-68
2022/12/04 09:34:27;;;;;;;12.98;6.50;;;;;;;-0.09;46.46;95289.03;5039863;28;20113;-68
2022/12/04 09:36:52;;;;;;;12.35;7.07;;;;;;;0.19;46.95;95279.84;5039569;28;20564;-68
2022/12/04 09:39:17;;;;;;;14.25;7.22;;;;;;;0.48;46.12;95278.44;5040866;28;20564;-67
2022/12/04 09:42:07;;;;;;;11.60;6.80;;;;;;;0.32;46.61;95277.09;5038234;28;20120;-67
2022/12/04 09:44:35;;;;;;;11.48;6.50;;;;;;;0.14;46.84;95271.50;5038853;28;20100;-68
2022/12/04 09:47:07;;;;;;;12.52;7.15;;;;;;;0.20;46.25;95264.94;5024932;28;20135;-67
2022/12/04 09:49:48;;;;;;;13.35;6.88;;;;;;;0.58;45.65;95258.44;5024892;28;20536;-68
2022/12/04 09:52:38;;;;;;;10.80;6.30;;;;;;;0.58;45.78;95258.44;5043985;28;20073;-68
2022/12/04 09:55:04;;;;;;;9.88;5.80;;;;;;;0.76;45.22;95265.75;5041609;28;20102;-68
2022/12/04 09:57:37;;;;;;;9.27;5.68;;;;;;;0.67;45.84;95269.97;5026455;28;20093;-68
2022/12/04 10:00:06;;;;;;;17.85;6.80;;;;;;;0.91;45.09;95268.06;5042339;28;20073;-68
2022/12/04 10:02:36;;;;;;;11.52;6.95;;;;;;;0.91;44.95;95258.41;5037980;28;20105;-68
2022/12/04 10:05:02;;;;;;;12.20;6.63;;;;;;;0.88;45.20;95260.47;5043845;28;20085;-67
2022/12/04 10:07:45;;;;;;;12.23;6.32;;;;;;;0.84;45.48;95246.78;5044451;28;20108;-68
2022/12/04 10:10:22;;;;;;;12.73;7.07;;;;;;;0.84;45.13;95252.84;5040329;28;20101;-68
2022/12/04 10:13:01;;;;;;;11.68;6.88;;;;;;;0.91;44.72;95257.56;5043058;28;20115;-68
2022/12/04 10:15:35;;;;;;;13.93;7.60;;;;;;;0.89;44.85;95241.97;5043954;28;20191;-68
2022/12/04 10:18:28;;;;;;;13.20;6.95;;;;;;;0.78;45.37;95227.13;5044355;28;20175;-68
2022/12/04 10:21:29;;;;;;;15.98;7.43;;;;;;;0.96;44.84;95226.59;5041568;28;20356;-67
2022/12/04 10:23:58;;;;;;;14.80;8.25;;;;;;;1.10;44.89;95231.50;5039439;28;20097;-68
2022/12/04 10:26:36;;;;;;;13.85;7.53;;;;;;;0.96;44.73;95244.94;5042091;28;20174;-68
2022/12/04 10:29:03;;;;;;;14.40;7.60;;;;;;;0.79;44.52;95249.75;5022068;28;20080;-68
2022/12/04 10:31:28;;;;;;;14.02;8.20;;;;;;;0.66;45.31;95249.13;5041485;28;20091;-68
2022/12/04 10:33:57;;;;;;;14.65;8.40;;;;;;;0.73;45.27;95253.72;5025536;28;20558;-68
2022/12/04 10:36:27;;;;;;;13.15;7.95;;;;;;;0.59;45.96;95241.75;5041902;28;20661;-68
2022/12/04 10:39:16;;;;;;;13.27;7.97;;;;;;;0.82;45.61;95231.16;5008083;28;20100;-68
2022/12/04 10:41:52;;;;;;;15.45;7.68;;;;;;;0.81;45.46;95228.66;5028090;28;20105;-68
2022/12/04 10:44:18;;;;;;;12.30;7.68;;;;;;;0.93;45.47;95232.94;5039904;28;20095;-68
2022/12/04 10:46:44;;;;;;;17.63;8.65;;;;;;;1.09;45.44;95221.97;5040653;28;20101;-67
2022/12/04 10:49:20;;;;;;;12.43;7.93;;;;;;;1.07;45.32;95225.69;5042661;28;20093;-67
2022/12/04 10:51:46;;;;;;;15.20;8.05;;;;;;;0.98;44.96;95224.66;5023693;28;20411;-68
2022/12/04 10:54:20;;;;;;;18.83;9.02;;;;;;;1.00;45.27;95229.78;5030919;28;20260;-68
2022/12/04 10:57:15;;;;;;;16.27;8.70;;;;;;;0.79;45.45;95222.75;5020233;28;20073;-68
2022/12/04 10:59:53;;;;;;;49.85;21.73;;;;;;;0.28;54.31;95227.69;5014302;28;20144;-68
2022/12/04 11:02:30;;;;;;;64.63;28.90;;;;;;;0.12;55.40;95230.69;5029963;28;20232;-68
2022/12/04 11:05:03;;;;;;;67.30;30.67;;;;;;;0.39;55.04;95226.81;5038735;28;20077;-67
2022/12/04 11:07:50;;;;;;;57.42;29.10;;;;;;;0.83;53.70;95227.59;5039980;28;20562;-67
2022/12/04 11:10:21;;;;;;;46.83;24.08;;;;;;;1.18;50.90;95228.25;5026560;28;20425;-68
2022/12/04 11:12:58;;;;;;;19.45;9.88;;;;;;;1.64;46.62;95211.38;5041705;28;20097;-67
2022/12/04 11:15:24;;;;;;;12.90;8.15;;;;;;;1.29;45.20;95201.09;5021606;28;20110;-68
2022/12/04 11:17:51;;;;;;;21.10;8.63;;;;;;;1.15;44.80;95206.69;5003731;28;20567;-68
2022/12/04 11:20:24;;;;;;;17.55;9.35;;;;;;;0.90;45.40;95203.50;5016958;28;21035;-67
2022/12/04 11:22:55;;;;;;;16.27;8.18;;;;;;;1.14;44.75;95199.78;5019424;28;20244;-68
2022/12/04 11:25:21;;;;;;;14.88;8.20;;;;;;;1.27;45.14;95205.66;5020818;28;20156;-68
2022/12/04 11:27:49;;;;;;;15.73;8.30;;;;;;;1.26;44.76;95190.88;5023500;28;20525;-68
2022/12/04 11:30:19;;;;;;;23.75;8.60;;;;;;;1.08;45.14;95191.47;5021335;28;20098;-68
2022/12/04 11:32:44;;;;;;;22.55;8.57;;;;;;;1.03;45.35;95183.19;5021876;28;20155;-68
2022/12/04 11:35:16;;;;;;;19.27;8.23;;;;;;;0.91;45.18;95192.88;5000143;28;1099526;-68
2022/12/04 11:37:41;;;;;;;27.50;8.05;;;;;;;0.51;46.39;95190.94;5038758;28;20527;-68
2022/12/04 11:40:15;;;;;;;28.88;9.50;;;;;;;0.93;46.03;95184.91;5040795;28;20085;-68
2022/12/04 11:42:40;;;;;;;15.43;8.70;;;;;;;0.70;46.35;95182.38;5041230;28;20593;-68
2022/12/04 11:45:20;;;;;;;15.27;8.95;;;;;;;0.97;45.95;95184.53;5040992;28;20077;-68
2022/12/04 11:48:01;;;;;;;16.05;9.18;;;;;;;1.23;45.64;95172.78;5038470;28;20101;-68